Date,TemperatureHighF,TemperatureAvgF,TemperatureLowF,DewpointHighF,DewpointAvgF,DewpointLowF,HumidityHigh,HumidityAvg,HumidityLow,PressureMaxIn,PressureMinIn,WindSpeedMaxMPH,WindSpeedAvgMPH,GustSpeedMaxMPH,PrecipitationSumIn
2013-1-1,19,9,-5,13,-2,-17,76,60,41,30.42,30.06,7,3,11,0.00
2013-1-2,21,17,13,16,10,7,82,76,64,30.10,29.97,8,2,11,0.00
2013-1-3,21,13,10,14,3,-4,76,65,52,30.28,30.09,11,6,16,0.00
2013-1-4,28,21,14,12,10,7,75,61,46,30.15,30.03,10,5,15,0.00
2013-1-5,24,17,9,10,7,2,77,65,49,30.11,29.88,10,3,12,0.00
2013-1-6,21,15,8,11,5,-1,81,65,47,30.24,30.03,9,5,14,0.00
2013-1-7,35,28,19,22,18,11,79,66,55,30.06,29.92,12,5,19,0.02
2013-1-8,35,27,18,27,21,15,86,76,61,30.01,29.79,11,4,15,0.02
2013-1-9,33,30,26,24,19,14,80,63,46,30.38,29.94,15,6,24,0.00
2013-1-10,40,34,27,34,23,14,100,67,36,30.32,29.77,9,4,13,0.28
2013-1-11,40,37,34,40,32,-100,100,97,100,29.77,29.42,7,3,12,0.07
2013-1-12,38,16,6,38,4,-100,100,65,49,30.31,29.43,16,8,29,0.00
2013-1-13,12,6,2,-2,-7,-10,70,55,45,30.32,30.09,9,5,14,0.00
2013-1-14,15,9,5,2,-2,-5,70,60,47,30.41,30.24,10,3,16,0.00
2013-1-15,30,21,11,12,8,3,71,56,43,30.30,29.89,11,5,17,0.00
2013-1-16,38,21,12,32,8,-4,96,58,41,30.22,29.71,13,6,18,0.01
2013-1-17,20,9,4,6,-7,-13,61,48,30,30.41,30.22,9,4,13,0.00
2013-1-18,42,31,17,28,21,6,84,68,53,30.29,29.77,9,5,15,0.01
2013-1-19,40,26,3,29,16,-13,89,67,39,30.30,29.71,23,8,35,0.00
2013-1-20,10,4,-2,-5,-13,-19,57,45,33,30.46,30.25,15,7,22,0.00
2013-1-21,-2,-5,-10,-18,-23,-28,49,41,31,30.33,30.26,15,7,19,0.00
2013-1-22,7,-1,-9,-10,-19,-25,50,42,32,30.44,30.24,7,3,10,0.00
2013-1-23,19,9,-3,6,-9,-27,66,45,28,30.59,30.15,16,5,23,0.00
2013-1-24,14,3,-6,-3,-19,-28,47,34,24,30.65,30.19,9,4,14,0.00
2013-1-25,21,13,4,9,-3,-11,63,49,36,30.31,29.97,17,7,27,0.00
2013-1-26,24,17,2,5,-14,-100,57,35,32,30.59,30.11,8,4,13,0.00
2013-1-27,32,30,24,32,21,5,100,73,42,30.11,29.83,8,2,13,0.04
2013-1-28,36,32,31,36,24,-100,100,94,95,29.93,29.66,9,2,12,0.02
2013-1-29,37,32,28,37,30,20,100,92,72,29.76,29.56,9,4,17,0.01
2013-1-30,28,17,9,20,4,-4,72,57,49,29.78,29.65,14,8,19,0.00
2013-1-31,9,0,-7,-3,-16,-25,58,44,38,30.48,29.78,17,10,24,0.00
2013-2-1,10,-1,-11,0,-20,-30,66,41,22,30.55,30.26,10,4,16,0.00
2013-2-2,14,7,3,6,-28,-100,73,40,34,30.39,29.94,5,1,7,0.00
2013-2-3,18,12,4,5,-1,-100,71,56,36,30.08,29.94,12,4,16,0.00
2013-2-4,21,12,5,7,-4,-12,73,51,24,30.05,29.76,7,2,11,0.00
2013-2-5,32,23,10,28,14,0,99,72,50,30.08,29.67,10,5,14,0.00
2013-2-6,30,17,3,21,9,-7,85,69,59,30.10,29.92,9,3,14,0.00
2013-2-7,27,25,20,24,20,16,93,80,67,30.24,29.97,7,3,13,0.00
2013-2-8,28,24,22,18,14,9,76,65,48,30.36,30.21,7,3,11,0.00
2013-2-9,32,28,25,28,23,18,96,82,72,30.21,29.92,9,5,15,0.00
2013-2-10,34,31,28,34,25,-100,100,93,86,29.93,29.28,11,5,16,0.00
2013-2-11,31,25,17,31,16,-100,100,75,59,30.04,29.35,16,5,21,0.00
2013-2-12,36,26,16,20,14,6,77,62,46,30.05,29.82,8,4,13,0.10
2013-2-13,41,29,18,33,21,12,98,71,45,29.82,29.58,7,3,10,0.22
2013-2-14,36,27,13,33,16,-4,100,65,36,30.17,29.58,10,5,14,0.03
2013-2-15,22,11,3,-3,-6,-9,61,48,28,30.29,30.17,10,6,14,0.00
2013-2-16,20,9,2,2,-4,-9,64,55,37,30.25,30.10,6,3,7,0.00
2013-2-17,31,21,8,19,9,-4,72,60,46,30.11,29.64,12,6,18,0.00
2013-2-18,34,23,5,30,13,-6,86,65,54,29.82,29.56,17,8,31,0.00
2013-2-19,9,3,-4,-5,-14,-20,61,45,30,30.35,29.82,17,10,24,0.00
2013-2-20,19,5,-8,-6,-14,-23,49,42,25,30.45,30.35,7,3,8,0.00
2013-2-21,21,13,4,5,-2,-8,62,50,38,30.43,30.06,10,5,14,0.00
2013-2-22,32,23,18,19,15,5,87,72,48,30.06,29.88,10,4,13,0.06
2013-2-23,30,21,16,15,12,7,80,70,49,29.98,29.88,6,3,9,0.00
2013-2-24,37,24,11,14,10,1,74,56,36,30.11,29.97,4,2,7,0.04
2013-2-25,40,30,22,24,19,14,85,67,44,30.12,30.05,4,1,6,0.05
2013-2-26,38,29,21,22,20,16,86,69,48,30.06,29.88,9,3,14,0.00
2013-2-27,42,32,27,21,19,16,73,60,39,30.03,29.87,9,4,18,0.00
2013-2-28,31,28,24,18,14,10,66,56,49,30.22,30.03,7,3,14,0.00
2013-3-1,35,25,18,11,8,5,59,49,36,30.34,30.21,7,3,11,0.00
2013-3-2,30,20,10,9,-1,-10,70,43,20,30.34,30.17,5,2,6,0.00
2013-3-3,33,24,15,5,1,-9,49,36,22,30.17,29.99,9,4,14,0.00
2013-3-4,27,24,21,21,14,4,91,66,40,30.03,29.93,12,7,19,0.00
2013-3-5,32,26,22,22,19,13,93,76,56,30.30,29.97,6,3,10,0.08
2013-3-6,37,24,16,14,11,8,70,58,32,30.42,30.30,7,3,10,0.02
2013-3-7,31,22,12,13,10,5,82,62,39,30.37,30.28,9,3,13,0.01
2013-3-8,42,29,16,26,19,12,84,67,41,30.31,30.08,9,5,14,0.09
2013-3-9,36,35,33,36,27,-100,100,93,69,30.09,29.72,10,4,15,0.74
2013-3-10,36,33,29,34,27,-100,100,87,72,29.96,29.78,12,4,18,0.03
2013-3-11,36,29,21,28,19,10,98,67,46,29.87,29.77,9,5,13,0.06
2013-3-12,36,26,19,16,11,3,72,54,33,30.20,29.85,15,7,21,0.00
2013-3-13,36,22,11,13,6,3,69,51,27,30.38,30.20,8,4,11,0.00
2013-3-14,43,32,23,23,19,12,93,62,37,30.26,30.04,6,3,10,0.09
2013-3-15,34,31,27,31,27,22,96,85,73,30.04,29.83,8,3,11,0.01
2013-3-16,36,25,14,26,10,-1,96,58,29,30.22,29.89,10,5,13,0.00
2013-3-17,27,19,7,17,1,-9,66,45,31,30.26,29.87,13,6,17,0.00
2013-3-18,30,22,11,30,13,0,100,70,47,29.87,29.63,20,10,29,0.00
2013-3-19,24,13,5,0,-6,-11,64,44,27,30.19,29.83,15,10,24,0.00
2013-3-20,25,14,5,-4,-9,-15,48,37,19,30.22,30.12,14,8,20,0.00
2013-3-21,36,18,5,2,-4,-10,52,39,15,30.13,30.04,6,3,9,0.00
2013-3-22,42,26,12,10,1,-5,55,38,15,30.11,30.05,4,3,6,0.00
2013-3-23,44,30,18,15,9,4,63,43,21,30.17,30.08,7,3,9,0.00
2013-3-24,37,29,25,19,16,11,71,57,35,30.12,29.98,8,3,13,0.00
2013-3-25,46,32,23,19,10,5,66,42,20,30.23,30.04,9,4,13,0.00
2013-3-26,42,30,22,16,13,10,68,52,29,30.30,30.23,8,4,11,0.00
2013-3-27,50,34,23,18,10,-2,70,41,13,30.35,30.30,5,2,7,0.00
2013-3-28,44,34,26,21,15,8,64,45,24,30.34,30.28,6,2,9,0.00
2013-3-29,50,40,30,34,25,20,83,56,35,30.30,30.09,6,3,9,0.00
2013-3-30,53,42,34,42,34,28,100,77,53,30.09,29.89,8,4,12,0.06
2013-3-31,43,34,24,34,22,5,100,69,26,30.11,29.83,16,8,22,0.00
2013-4-1,35,27,18,12,7,2,59,43,27,30.27,30.11,13,6,18,0.00
2013-4-2,39,30,20,14,7,0,68,42,22,30.37,30.26,10,4,13,0.00
2013-4-3,44,35,24,26,12,3,58,39,23,30.42,30.11,11,4,15,0.00
2013-4-4,52,42,33,31,22,12,69,45,24,30.19,30.04,12,6,20,0.00
2013-4-5,43,33,28,34,21,10,100,65,30,30.25,29.91,12,5,19,0.04
2013-4-6,56,43,35,43,34,24,92,73,47,29.91,29.53,13,6,22,0.09
2013-4-7,48,40,34,41,33,28,100,77,58,29.98,29.77,8,4,11,0.21
2013-4-8,50,43,39,47,40,-100,100,94,75,30.04,29.70,9,3,13,0.14
2013-4-9,40,37,32,39,34,24,100,91,61,30.15,29.98,14,6,20,0.60
2013-4-10,36,32,28,32,26,17,100,80,49,30.19,29.90,18,7,26,0.05
2013-4-11,35,32,29,34,30,17,100,91,47,29.91,29.68,14,5,18,0.02
2013-4-12,42,34,28,33,27,24,100,77,55,29.85,29.67,8,4,13,0.51
2013-4-13,45,33,28,28,22,16,95,68,38,29.98,29.85,10,4,14,0.15
2013-4-14,36,32,29,36,26,-100,100,87,62,29.96,29.48,14,5,20,0.17
2013-4-15,40,35,30,35,25,-100,100,70,53,30.01,29.57,14,6,22,0.09
2013-4-16,49,39,32,26,22,18,78,54,29,30.32,30.00,11,4,15,0.00
2013-4-17,37,35,34,36,28,22,100,78,58,30.32,29.90,11,5,16,0.42
2013-4-18,35,32,31,35,32,31,100,100,97,29.92,29.53,8,2,17,0.19
2013-4-19,43,34,28,31,22,12,100,66,30,30.01,29.52,15,3,20,0.09
2013-4-20,48,35,22,16,7,-10,67,36,10,30.31,30.01,6,3,8,0.32
2013-4-21,50,40,32,47,34,-100,100,83,39,30.32,30.05,13,5,19,0.35
2013-4-22,39,36,32,39,34,28,100,93,66,30.22,30.10,9,2,12,0.15
2013-4-23,51,37,30,32,22,14,100,62,27,30.17,30.08,9,3,13,0.55
2013-4-24,50,37,26,33,23,15,89,59,28,30.09,29.93,11,5,18,0.01
2013-4-25,49,41,32,31,24,13,83,55,24,30.24,30.01,12,5,16,0.00
2013-4-26,71,57,42,36,31,23,66,40,22,30.17,30.01,10,5,15,0.02
2013-4-27,74,61,44,42,33,23,70,37,16,30.17,29.95,8,3,14,0.00
2013-4-28,78,63,50,50,41,30,77,48,17,29.95,29.70,16,5,22,0.09
2013-4-29,73,62,50,56,45,31,89,58,33,29.85,29.60,8,3,12,0.00
2013-4-30,72,64,56,60,40,15,95,48,15,29.99,29.48,13,6,20,0.00
2013-5-1,56,40,33,38,32,26,98,78,32,30.48,29.99,11,4,17,0.49
2013-5-2,46,38,32,35,28,18,100,70,36,30.53,30.39,8,3,14,0.40
2013-5-3,38,34,32,32,27,20,94,77,51,30.40,30.14,9,4,14,0.21
2013-5-4,52,40,32,42,37,31,100,89,65,30.18,30.10,8,3,10,0.10
2013-5-5,66,51,39,44,39,34,92,66,38,30.18,30.09,7,2,10,0.00
2013-5-6,77,62,46,49,42,35,99,53,26,30.14,30.05,6,2,9,0.00
2013-5-7,80,67,54,47,40,26,72,41,15,30.10,30.00,6,2,11,0.00
2013-5-8,79,66,58,58,44,32,100,51,20,30.04,29.97,7,3,10,0.01
2013-5-9,58,53,43,58,50,23,100,89,45,30.10,29.97,9,4,17,0.00
2013-5-10,66,53,38,28,17,-1,54,30,8,30.12,29.91,7,3,10,0.00
2013-5-11,55,48,40,34,16,1,55,30,12,30.19,29.90,17,8,26,0.00
2013-5-12,59,48,34,20,7,-11,54,23,7,30.23,30.11,11,4,17,0.00
2013-5-13,71,57,42,38,20,3,36,24,12,30.13,29.71,9,4,18,0.00
2013-5-14,96,76,59,46,31,-14,46,24,3,29.74,29.51,19,6,26,0.00
2013-5-15,76,66,54,47,38,32,62,37,21,29.97,29.72,12,4,17,0.01
2013-5-16,83,71,59,40,30,15,44,24,9,29.96,29.88,10,4,13,0.00
2013-5-17,67,56,53,57,48,-100,100,86,15,30.02,29.92,11,5,17,0.00
2013-5-18,80,65,54,68,59,54,100,82,46,30.05,29.83,9,4,15,0.41
2013-5-19,80,68,62,71,63,-100,100,89,53,29.84,29.57,13,3,21,1.33
2013-5-20,71,65,57,63,58,51,100,81,49,29.65,29.54,10,3,16,0.57
2013-5-21,66,59,53,62,54,-100,100,88,56,29.73,29.55,5,2,8,0.00
2013-5-22,53,50,47,53,47,-100,100,98,100,29.99,29.71,6,2,14,0.32
2013-5-23,63,54,44,50,30,13,97,45,15,30.36,29.99,6,3,10,0.00
2013-5-24,68,55,42,50,32,22,91,45,20,30.40,30.20,7,3,11,0.20
2013-5-25,59,54,51,52,45,37,100,75,53,30.29,30.23,10,5,17,0.04
2013-5-26,55,52,49,48,41,34,86,67,51,30.24,30.06,12,5,18,0.00
2013-5-27,56,54,52,56,53,47,100,96,78,30.07,29.86,10,4,14,0.10
2013-5-28,59,55,52,59,55,52,100,100,100,29.87,29.75,4,2,6,0.06
2013-5-29,73,63,52,73,61,-100,100,99,91,29.85,29.68,8,2,15,0.30
2013-5-30,76,67,62,67,62,57,100,86,56,29.73,29.57,8,3,17,0.36
2013-5-31,78,68,61,64,51,-100,100,63,26,29.62,29.56,9,3,18,0.07
2013-6-1,71,60,51,62,51,40,90,73,53,29.97,29.60,8,2,15,0.06
2013-6-2,67,57,49,41,35,29,67,46,24,30.10,29.96,6,2,12,0.00
2013-6-3,68,61,49,40,35,26,66,39,23,30.10,29.94,6,2,9,0.00
2013-6-4,61,58,53,53,46,39,93,67,47,30.10,30.01,7,3,11,0.02
2013-6-5,64,57,53,61,54,-100,100,93,66,30.07,29.95,6,1,8,0.03
2013-6-6,56,54,51,56,42,-100,100,92,98,30.05,29.97,3,0,7,0.00
2013-6-7,65,58,53,56,49,-100,100,76,50,30.06,29.94,3,0,5,0.00
2013-6-8,69,62,55,55,49,44,94,64,43,29.95,29.90,4,1,6,0.00
2013-6-9,68,60,55,65,56,-100,100,96,77,29.92,29.78,9,4,15,0.53
2013-6-10,74,65,59,68,60,58,100,86,57,29.89,29.82,4,1,7,0.00
2013-6-11,77,68,58,72,62,-100,100,89,68,29.93,29.83,3,1,7,0.04
2013-6-12,69,66,63,69,63,-100,100,95,69,29.94,29.80,5,2,9,0.46
2013-6-13,78,67,57,53,49,42,72,53,31,30.12,29.94,4,2,7,0.01
2013-6-14,77,68,58,57,52,47,74,58,44,30.10,29.90,7,3,10,0.03
2013-6-15,75,69,63,71,63,-100,100,86,64,29.97,29.88,6,1,10,0.16
2013-6-16,85,72,62,64,49,32,97,51,15,29.97,29.89,8,2,14,0.01
2013-6-17,83,72,62,54,48,39,68,46,23,30.02,29.91,6,2,12,0.00
2013-6-18,74,66,57,56,51,48,74,61,42,30.11,30.02,5,2,6,0.00
2013-6-19,83,70,59,58,52,46,83,56,30,30.10,29.97,4,1,7,0.00
2013-6-20,88,78,68,63,57,52,67,50,30,30.04,29.92,8,2,15,0.00
2013-6-21,79,71,64,72,64,-100,100,82,51,30.05,29.81,10,2,20,0.81
2013-6-22,81,71,64,74,66,-100,100,88,67,30.04,29.87,6,2,8,0.68
2013-6-23,82,74,67,73,66,59,100,81,48,29.94,29.75,6,2,14,0.22
2013-6-24,79,71,66,74,66,-100,100,88,66,29.95,29.84,5,0,9,0.13
2013-6-25,82,74,65,76,66,-100,100,84,67,29.87,29.76,5,2,6,0.00
2013-6-26,87,77,70,79,67,-100,100,77,44,29.87,29.70,7,2,11,0.00
2013-6-27,86,77,70,65,54,40,78,48,21,29.88,29.83,10,3,15,0.00
2013-6-28,78,70,65,65,55,49,100,60,41,29.86,29.79,11,4,16,0.17
2013-6-29,75,67,61,65,56,-100,100,74,37,29.99,29.78,5,2,12,0.30
2013-6-30,79,68,56,52,44,31,72,46,18,30.15,30.00,4,1,8,0.00
2013-7-1,82,72,63,53,48,41,64,45,24,30.22,30.15,3,1,5,0.00
2013-7-2,81,70,59,54,48,39,71,47,27,30.18,30.08,4,1,6,0.00
2013-7-3,82,74,63,56,43,32,68,36,17,30.10,29.98,3,1,5,0.00
2013-7-4,86,74,62,58,51,42,74,48,22,30.00,29.91,5,2,9,0.00
2013-7-5,84,75,66,59,55,50,66,51,33,29.95,29.85,6,2,13,0.00
2013-7-6,88,80,70,64,58,54,64,48,35,29.94,29.85,6,2,14,0.00
2013-7-7,88,80,73,74,64,58,99,60,43,29.91,29.85,5,1,11,0.01
2013-7-8,87,78,68,74,66,-100,100,70,38,30.01,29.91,3,1,6,0.00
2013-7-9,84,76,69,76,68,62,100,78,51,29.98,29.80,11,2,20,1.03
2013-7-10,80,71,62,64,54,43,88,57,27,30.08,29.94,6,2,11,0.00
2013-7-11,83,72,63,61,51,40,85,50,25,30.14,30.01,4,1,7,0.00
2013-7-12,85,75,66,59,54,50,68,48,30,30.05,29.95,6,3,14,0.00
2013-7-13,74,70,63,72,60,-100,100,75,44,30.09,29.96,7,3,13,5.78
2013-7-14,84,74,67,67,63,56,98,71,40,30.21,30.08,4,1,10,0.00
2013-7-15,85,76,66,72,64,-100,100,70,41,30.27,30.18,3,1,6,0.00
2013-7-16,90,81,73,76,68,-100,100,70,40,30.25,30.19,5,1,10,0.00
2013-7-17,91,82,74,71,67,62,86,62,38,30.29,30.15,4,1,7,0.00
2013-7-18,92,83,75,71,66,60,82,59,38,30.15,29.82,7,2,16,0.00
2013-7-19,84,78,71,72,61,49,92,59,32,29.93,29.78,9,3,16,0.23
2013-7-20,82,71,65,64,59,54,82,66,41,29.99,29.91,3,1,6,0.00
2013-7-21,77,68,58,70,61,52,100,77,59,29.99,29.84,5,2,8,0.10
2013-7-22,86,74,65,73,61,-100,100,72,42,29.88,29.72,6,2,10,0.00
2013-7-23,76,67,60,56,49,41,83,54,31,30.05,29.88,4,1,11,0.00
2013-7-24,75,65,58,58,54,48,82,67,44,30.10,30.01,3,0,6,0.00
2013-7-25,79,70,62,69,59,53,87,69,52,30.02,29.93,4,2,10,0.02
2013-7-26,73,64,57,66,50,-100,100,68,42,30.09,29.93,8,3,15,0.01
2013-7-27,63,56,52,50,44,37,82,64,39,30.09,29.96,8,2,13,0.04
2013-7-28,71,60,50,52,46,42,84,63,38,30.09,29.98,5,1,9,0.01
2013-7-29,77,66,55,56,51,45,93,61,35,30.16,30.09,3,1,7,0.00
2013-7-30,72,66,62,67,61,50,100,84,58,30.13,30.08,3,0,5,0.02
2013-7-31,79,68,61,73,60,47,100,79,39,30.11,30.02,8,2,14,0.05
2013-8-1,80,68,58,55,48,42,67,52,27,30.07,29.90,4,1,7,0.00
2013-8-2,76,67,60,57,51,42,80,57,32,30.07,29.89,4,1,8,0.00
2013-8-3,78,66,57,54,47,37,81,53,26,30.22,30.07,4,1,8,0.00
2013-8-4,69,63,55,56,50,41,79,62,49,30.25,30.05,2,1,4,0.00
2013-8-5,76,67,59,73,64,54,100,91,69,30.05,29.83,5,1,9,0.70
2013-8-6,82,69,59,67,60,-100,100,79,44,29.89,29.74,6,1,10,0.18
2013-8-7,74,66,60,63,50,-100,100,67,30,30.06,29.82,5,2,9,0.00
2013-8-8,74,65,58,61,52,44,100,66,40,30.09,30.02,3,0,6,0.00
2013-8-9,77,66,59,63,49,-100,100,65,31,30.16,30.03,6,2,10,0.01
2013-8-10,76,66,60,57,50,41,84,57,31,30.21,30.12,3,1,7,0.00
2013-8-11,76,71,61,69,61,-100,100,74,54,30.12,30.02,3,0,4,0.00
2013-8-12,78,69,61,67,50,-100,100,64,31,30.09,30.03,5,2,9,0.01
2013-8-13,76,64,56,58,46,32,100,57,22,30.22,30.10,4,1,6,0.00
2013-8-14,80,67,56,49,42,35,67,44,21,30.23,30.14,4,1,8,0.00
2013-8-15,79,68,58,54,45,39,72,46,27,30.17,30.11,3,1,6,0.00
2013-8-16,80,68,59,58,50,37,86,54,27,30.23,30.16,3,1,7,0.00
2013-8-17,82,70,57,56,49,38,93,52,23,30.24,30.14,6,1,11,0.00
2013-8-18,84,70,59,57,53,44,85,58,28,30.18,30.07,5,1,10,0.00
2013-8-19,85,73,64,66,60,55,83,67,42,30.09,29.96,4,2,12,0.00
2013-8-20,89,77,66,73,68,63,100,76,43,30.11,29.91,4,1,9,0.00
2013-8-21,84,76,72,78,73,68,100,92,63,30.03,29.89,4,1,8,0.12
2013-8-22,83,71,66,74,52,-100,100,56,25,30.15,30.03,5,2,8,0.00
2013-8-23,85,72,59,69,58,44,98,63,39,30.18,30.08,4,1,6,0.00
2013-8-24,87,77,68,69,67,62,100,74,46,30.12,29.99,6,3,17,0.00
2013-8-25,93,83,75,71,68,64,80,61,40,30.07,29.99,7,3,16,0.00
2013-8-26,93,84,76,74,70,63,91,67,38,30.05,29.90,6,2,13,0.00
2013-8-27,94,84,74,78,70,63,91,66,38,29.96,29.85,5,2,11,0.00
2013-8-28,89,79,71,79,71,62,100,81,43,30.05,29.95,5,1,8,0.00
2013-8-29,93,81,73,79,67,-100,100,71,28,30.05,29.90,5,2,11,0.00
2013-8-30,82,76,70,74,65,56,100,70,42,29.97,29.87,5,2,10,0.00
2013-8-31,87,73,63,69,61,-100,100,74,37,29.95,29.78,5,1,10,0.08
2013-9-1,76,69,63,70,58,50,100,73,44,30.02,29.79,6,2,13,0.00
2013-9-2,64,59,53,53,50,45,93,73,51,30.14,30.01,4,1,10,0.00
2013-9-3,76,64,51,55,50,42,97,66,31,30.15,30.06,4,1,7,0.01
2013-9-4,88,74,64,66,59,53,83,62,37,30.20,30.07,4,1,7,0.00
2013-9-5,83,71,60,70,59,53,100,69,42,30.26,30.16,4,2,6,0.00
2013-9-6,89,76,67,73,60,-100,100,67,24,30.16,29.93,6,2,12,0.03
2013-9-7,91,79,70,72,62,53,99,60,31,30.05,29.91,4,2,7,0.00
2013-9-8,78,70,64,67,63,59,100,80,56,30.09,29.95,7,3,10,0.00
2013-9-9,90,77,67,77,65,-100,100,74,35,29.95,29.70,6,2,18,0.02
2013-9-10,81,73,67,70,62,54,100,71,41,30.04,29.82,4,1,8,0.00
2013-9-11,87,73,65,64,51,33,96,53,17,30.11,30.04,7,2,11,0.00
2013-9-12,76,64,55,51,41,29,82,46,20,30.26,30.11,6,2,12,0.00
2013-9-13,72,58,47,49,37,24,90,51,17,30.32,30.14,3,1,5,0.00
2013-9-14,75,58,48,58,42,-100,100,64,20,30.14,29.91,5,2,13,0.43
2013-9-15,65,57,50,61,53,46,100,88,65,30.35,29.92,5,2,9,0.37
2013-9-16,65,53,42,47,39,29,100,66,28,30.43,30.29,4,1,5,0.01
2013-9-17,66,55,45,58,48,-100,100,80,49,30.30,29.99,6,2,12,0.00
2013-9-18,73,69,59,73,60,-100,100,90,1,29.99,29.77,6,2,11,0.09
2013-9-19,76,70,63,73,67,56,100,92,69,29.86,29.72,9,2,19,0.29
2013-9-20,64,58,51,60,49,41,100,75,47,29.97,29.84,7,3,12,0.01
2013-9-21,64,54,46,53,43,36,100,70,36,30.03,29.94,4,1,7,0.01
2013-9-22,73,59,46,51,46,42,100,66,34,30.00,29.89,8,3,11,0.00
2013-9-23,72,61,51,49,44,36,89,58,29,29.99,29.91,8,4,20,0.00
2013-9-24,75,61,50,51,46,38,100,65,28,30.00,29.95,6,2,7,0.00
2013-9-25,74,62,51,55,46,37,100,62,28,30.01,29.91,6,2,8,0.00
2013-9-26,79,67,54,56,50,46,91,59,33,29.96,29.88,9,4,18,0.00
2013-9-27,81,71,63,60,55,48,86,60,34,29.96,29.85,9,4,19,0.00
2013-9-28,69,60,51,66,54,43,100,79,57,30.00,29.71,9,3,20,0.21
2013-9-29,74,60,48,43,35,23,77,45,15,30.01,29.85,6,2,12,0.00
2013-9-30,77,66,56,43,39,34,59,39,22,29.85,29.66,8,3,16,0.00
2013-10-1,79,67,58,46,27,-6,56,28,4,30.03,29.67,8,3,14,0.00
2013-10-2,75,62,51,56,26,5,100,32,7,30.08,29.86,8,3,16,0.25
2013-10-3,59,57,56,59,57,56,100,100,100,29.95,29.85,8,2,9,0.11
2013-10-4,57,56,55,57,46,-100,100,94,100,30.00,29.85,9,4,11,0.31
2013-10-5,62,54,46,53,34,-100,100,59,2,29.88,29.76,10,2,14,0.05
2013-10-6,56,48,44,52,32,-100,100,80,59,29.88,29.73,5,1,11,0.07
2013-10-7,66,53,43,47,35,-100,100,61,22,30.02,29.86,4,2,8,0.00
2013-10-8,74,60,47,41,33,22,77,41,16,30.01,29.88,7,3,16,0.00
2013-10-9,74,63,55,42,38,31,61,42,21,30.08,29.98,5,2,13,0.00
2013-10-10,76,62,50,43,38,31,68,44,21,30.08,29.92,6,3,11,0.00
2013-10-11,73,64,53,57,47,38,95,59,29,29.93,29.69,18,5,23,0.12
2013-10-12,58,52,46,57,35,20,95,56,25,30.21,29.77,10,3,18,0.00
2013-10-13,61,49,39,34,25,12,64,41,17,30.45,30.21,4,1,6,0.00
2013-10-14,53,48,41,49,30,21,100,51,32,30.42,29.97,11,4,14,0.33
2013-10-15,53,49,46,52,46,-100,100,98,100,29.98,29.71,12,3,18,0.54
2013-10-16,52,46,43,46,37,-100,100,75,43,29.99,29.84,5,2,14,0.03
2013-10-17,58,47,40,46,33,23,98,62,28,29.92,29.79,7,2,11,0.04
2013-10-18,53,44,39,42,28,12,99,61,21,30.00,29.87,7,3,11,0.03
2013-10-19,48,40,34,38,30,22,90,70,47,29.87,29.71,9,2,13,0.03
2013-10-20,50,39,32,45,30,22,92,72,44,29.90,29.63,8,2,13,0.04
2013-10-21,39,35,30,31,15,7,78,44,27,29.98,29.90,8,4,12,0.01
2013-10-22,41,34,28,26,20,14,72,55,42,30.03,29.96,4,2,6,0.00
2013-10-23,40,35,31,24,17,7,67,49,28,30.10,30.00,8,3,11,0.00
2013-10-24,44,36,32,23,16,10,60,43,28,30.31,30.10,8,3,11,0.00
2013-10-25,56,42,28,30,23,19,76,50,28,30.32,29.82,10,3,21,0.00
2013-10-26,50,43,35,30,19,14,53,39,27,30.11,29.82,10,4,14,0.00
2013-10-27,58,43,32,27,18,12,60,40,18,30.12,29.83,7,3,13,0.00
2013-10-28,42,36,31,22,13,4,64,40,21,30.41,30.12,8,4,11,0.00
2013-10-29,42,37,31,34,20,9,86,50,39,30.39,30.08,7,3,8,0.03
2013-10-30,51,45,38,51,43,-100,100,99,87,30.08,29.69,6,2,8,0.07
2013-10-31,51,42,39,51,40,-100,100,97,92,29.69,29.43,7,3,10,0.02
2013-11-1,51,43,38,42,28,-100,100,69,38,29.87,29.44,8,4,12,0.00
2013-11-2,48,40,34,33,24,16,79,53,28,30.10,29.87,6,2,9,0.00
2013-11-3,53,43,33,27,21,12,78,44,21,30.11,29.90,15,5,23,0.00
2013-11-4,47,44,38,47,32,21,100,64,37,30.16,29.85,8,3,18,0.13
2013-11-5,44,37,32,34,26,18,100,67,37,30.24,30.00,8,2,11,0.04
2013-11-6,39,34,29,35,24,15,100,70,43,30.17,29.99,7,2,11,0.17
2013-11-7,34,31,28,28,24,20,90,77,62,30.23,30.16,8,4,15,0.00
2013-11-8,44,36,25,38,22,9,90,61,28,30.20,29.64,11,4,19,0.04
2013-11-9,44,40,34,38,25,14,78,56,36,30.21,29.66,17,9,24,0.00
2013-11-10,41,37,33,23,19,16,56,48,37,30.33,30.08,11,3,14,0.00
2013-11-11,38,26,17,26,4,-7,71,39,24,30.69,30.10,8,4,14,0.00
2013-11-12,27,23,12,2,-5,-9,51,30,21,30.78,30.45,7,3,10,0.00
2013-11-13,48,36,22,22,11,-3,45,35,28,30.45,29.91,14,6,23,0.00
2013-11-14,47,37,34,32,22,18,68,55,43,29.91,29.79,8,4,13,0.00
2013-11-15,54,45,35,34,28,22,81,53,29,29.88,29.68,7,3,11,0.00
2013-11-16,51,45,40,51,42,26,100,91,51,29.68,29.27,9,4,18,0.09
2013-11-17,43,39,31,41,28,-100,100,74,55,29.85,29.35,19,8,25,0.00
2013-11-18,35,30,25,18,12,8,58,46,34,30.26,29.85,17,6,23,0.00
2013-11-19,44,34,22,19,15,10,74,48,26,30.26,29.94,10,5,18,0.00
2013-11-20,43,40,36,34,19,5,88,48,21,30.05,29.91,9,4,19,0.00
2013-11-21,37,31,24,37,26,10,100,82,54,30.49,30.05,10,4,13,0.00
2013-11-22,29,23,14,10,-1,-13,55,37,17,30.60,30.45,12,5,16,0.00
2013-11-23,18,12,8,-5,-11,-18,48,35,21,30.82,30.60,9,4,14,0.00
2013-11-24,28,18,5,3,-6,-14,53,36,22,30.69,30.01,14,6,27,0.00
2013-11-25,40,33,26,18,12,3,57,41,34,30.08,29.93,14,7,23,0.01
2013-11-26,30,21,14,10,-9,-19,42,26,15,30.37,30.08,15,7,23,0.00
2013-11-27,24,17,9,-1,-7,-13,50,34,20,30.36,30.07,6,2,9,0.00
2013-11-28,31,23,17,1,-2,-6,42,34,20,30.50,30.06,9,3,12,0.00
2013-11-29,33,24,15,10,3,-3,55,41,23,30.50,30.13,8,3,18,0.00
2013-11-30,39,32,23,20,15,10,73,51,36,30.17,30.03,6,3,10,0.00
2013-12-1,35,29,22,19,15,13,75,57,41,30.18,29.93,3,1,4,0.00
2013-12-2,39,33,27,35,26,-100,100,80,56,29.93,29.60,8,4,13,0.10
2013-12-3,35,33,31,35,33,31,100,100,100,29.78,29.59,6,3,9,0.07
2013-12-4,33,28,12,33,26,-100,100,95,63,29.76,29.49,13,5,19,0.00
2013-12-5,12,6,-1,2,-10,-17,63,49,35,30.34,29.75,14,7,21,0.00
2013-12-6,6,-2,-6,-17,-21,-26,46,39,23,30.62,30.33,7,3,14,0.00
2013-12-7,2,-4,-10,-13,-24,-32,52,37,20,30.68,30.53,6,2,9,0.00
2013-12-8,14,8,-1,7,-4,-17,78,59,44,30.53,30.02,7,2,10,0.00
2013-12-9,12,1,-4,4,-15,-27,71,47,27,30.12,29.86,11,3,17,0.00
2013-12-10,15,9,4,6,-6,-21,73,51,25,30.25,29.77,16,6,23,0.00
2013-12-11,9,-2,-8,-8,-23,-34,52,35,16,30.54,30.25,11,4,15,0.00
2013-12-12,20,14,1,4,-3,-18,61,47,35,30.29,30.12,8,2,13,0.00
2013-12-13,16,13,11,3,-1,-6,63,52,42,30.25,30.10,9,5,14,0.00
2013-12-14,19,10,0,1,-5,-18,62,51,37,30.25,30.07,12,4,16,0.00
2013-12-15,9,3,-1,-15,-19,-24,44,34,23,30.13,30.08,8,3,11,0.00
2013-12-16,24,11,1,15,-3,-23,83,54,30,30.10,29.92,8,4,12,0.00
2013-12-17,30,24,14,21,8,-4,70,53,33,30.12,29.91,17,8,27,0.00
2013-12-18,37,25,10,20,11,-1,72,56,33,30.08,29.67,9,4,15,0.08
2013-12-19,28,19,16,17,4,-2,63,52,40,30.05,29.80,9,5,14,0.00
2013-12-20,21,18,16,8,5,3,64,57,47,30.00,29.85,8,2,12,0.00
2013-12-21,23,19,16,8,6,4,65,57,45,29.98,29.84,5,2,8,0.00
2013-12-22,22,14,2,8,1,-14,63,55,44,30.23,29.92,10,5,15,0.00
2013-12-23,2,-2,-7,-12,-22,-30,49,38,23,30.47,30.23,10,6,15,0.00
2013-12-24,11,0,-14,0,-19,-31,66,42,15,30.47,30.12,11,4,15,0.00
2013-12-25,30,17,9,20,6,-2,80,64,44,30.14,30.04,15,5,21,0.00
2013-12-26,28,21,12,18,12,3,85,68,50,30.17,30.06,3,1,6,0.00
2013-12-27,38,31,22,29,22,17,98,74,44,30.16,29.92,12,4,23,0.16
2013-12-28,44,33,24,29,23,15,99,72,32,30.00,29.66,11,4,18,0.15
2013-12-29,24,2,-11,16,-22,-36,71,33,15,30.29,29.98,12,6,18,0.00
2013-12-30,3,-4,-13,-13,-20,-30,51,44,35,30.28,30.14,5,2,7,0.00
2013-12-31,5,-3,-10,-11,-21,-26,58,42,27,30.37,30.16,5,2,7,0.00
2014-1-1,3,-2,-9,-19,-25,-31,45,32,24,30.44,30.34,7,3,9,0.00
2014-1-2,8,-2,-12,-20,-27,-37,45,30,12,30.46,30.34,5,2,7,0.00